Time;durP1;ratioP1;P1;durP2;ratioP2;P2;SDS_P1;SDS_P2;PMS_P1;PMS_P2;Temp;Humidity;BMP_temperature;BMP_pressure;BME280_temperature;BME280_humidity;BME280_pressure;Samples;Min_cycle;Max_cycle;Signal;HPM_P1;HPM_P2
2022/12/06 00:01:44;;;;;;;4.88;1.90;;;;;;;0.24;100.00;92458.06;5078960;28;20040;-75
2022/12/06 00:04:13;;;;;;;1.70;1.10;;;;;;;0.41;96.63;92446.09;5071900;28;20162;-75
2022/12/06 00:06:53;;;;;;;5.03;2.25;;;;;;;0.43;96.81;92448.41;5070938;28;20052;-75
2022/12/06 00:09:25;;;;;;;3.80;1.60;;;;;;;0.42;97.74;92447.63;5072854;28;20036;-74
2022/12/06 00:11:51;;;;;;;5.30;2.10;;;;;;;0.47;97.48;92441.81;5071821;28;20038;-75
2022/12/06 00:14:18;;;;;;;6.63;1.92;;;;;;;0.38;100.00;92442.16;5054865;28;20032;-74
2022/12/06 00:16:44;;;;;;;4.40;1.67;;;;;;;0.34;100.00;92451.34;5071376;28;20037;-74
2022/12/06 00:19:15;;;;;;;1.42;1.08;;;;;;;0.32;100.00;92442.28;5072696;28;20039;-75
2022/12/06 00:21:41;;;;;;;3.42;1.60;;;;;;;0.30;100.00;92450.22;5054781;28;20074;-73
2022/12/06 00:24:11;;;;;;;1.92;1.20;;;;;;;0.28;100.00;92452.22;5071186;28;20020;-74
2022/12/06 00:26:39;;;;;;;2.65;1.40;;;;;;;0.27;100.00;92429.28;5072526;28;20440;-74
2022/12/06 00:29:06;;;;;;;1.27;1.10;;;;;;;0.28;97.14;92425.72;5072493;28;20032;-74
2022/12/06 00:31:34;;;;;;;1.10;1.00;;;;;;;0.35;91.35;92441.81;5072437;28;20115;-75
2022/12/06 00:34:00;;;;;;;0.90;0.90;;;;;;;0.44;87.93;92430.16;5070604;28;20537;-75
2022/12/06 00:36:29;;;;;;;0.80;0.80;;;;;;;0.67;77.88;92426.78;5075909;28;20122;-75
2022/12/06 00:38:55;;;;;;;1.20;1.10;;;;;;;0.86;75.77;92430.00;5092504;28;20028;-74
2022/12/06 00:41:23;;;;;;;1.42;1.10;;;;;;;1.02;82.72;92429.28;5091337;28;20177;-74
2022/12/06 00:43:49;;;;;;;1.02;0.93;;;;;;;0.98;88.52;92424.81;5092344;28;20114;-74
2022/12/06 00:46:19;;;;;;;1.40;1.10;;;;;;;0.88;86.50;92430.56;5091146;28;20107;-74
2022/12/06 00:48:46;;;;;;;1.50;1.00;;;;;;;0.83;87.06;92427.88;5092295;28;20402;-74
2022/12/06 00:51:14;;;;;;;0.98;0.90;;;;;;;0.93;85.29;92409.25;5090567;28;20489;-74
2022/12/06 00:53:40;;;;;;;1.40;1.10;;;;;;;1.03;88.27;92420.53;5091271;28;20508;-74
2022/12/06 00:56:06;;;;;;;2.25;1.17;;;;;;;1.02;92.27;92421.53;5090989;28;20028;-74
2022/12/06 00:58:31;;;;;;;1.63;1.20;;;;;;;0.82;92.63;92423.72;5091854;28;20054;-74
2022/12/06 01:01:27;;;;;;;1.40;1.00;;;;;;;0.65;93.42;92421.06;5091870;28;20032;-74
2022/12/06 01:03:57;;;;;;;1.70;1.27;;;;;;;0.51;95.02;92423.09;5087609;28;20516;-74
2022/12/06 01:06:30;;;;;;;1.40;1.15;;;;;;;0.40;96.57;92418.75;5091723;28;20032;-74
2022/12/06 01:08:58;;;;;;;2.65;1.35;;;;;;;0.33;98.33;92407.78;5091596;28;20073;-74
2022/12/06 01:11:25;;;;;;;1.92;1.20;;;;;;;0.26;96.80;92407.13;5092023;28;20103;-74
2022/12/06 01:13:51;;;;;;;1.30;0.90;;;;;;;0.25;94.75;92410.69;5091848;28;20459;-74
2022/12/06 01:16:21;;;;;;;1.92;1.15;;;;;;;0.27;94.17;92411.25;5073773;28;20067;-74
2022/12/06 01:18:54;;;;;;;1.85;1.17;;;;;;;0.34;96.20;92409.38;5091672;28;20050;-74
2022/12/06 01:21:20;;;;;;;1.10;1.00;;;;;;;0.32;97.23;92401.84;5091701;28;20063;-74
2022/12/06 01:23:46;;;;;;;1.50;1.05;;;;;;;0.27;96.58;92404.34;5091714;28;20070;-74
2022/12/06 01:26:18;;;;;;;0.95;0.90;;;;;;;0.46;95.66;92399.03;5090496;28;20082;-75
2022/12/06 01:28:44;;;;;;;1.10;1.00;;;;;;;0.30;96.10;92403.88;5089880;28;20042;-75
2022/12/06 01:31:10;;;;;;;1.33;1.10;;;;;;;0.20;97.04;92401.88;5090369;28;20035;-74
2022/12/06 01:33:35;;;;;;;2.53;1.00;;;;;;;0.10;97.87;92399.06;5090281;28;20046;-74
2022/12/06 01:36:01;;;;;;;1.90;1.20;;;;;;;0.01;97.34;92405.56;5089970;28;20036;-74
2022/12/06 01:38:26;;;;;;;1.60;1.30;;;;;;;0.09;96.50;92414.72;5090348;28;20048;-74
2022/12/06 01:40:52;;;;;;;1.55;1.20;;;;;;;0.04;97.18;92412.81;5073401;28;20081;-74
2022/12/06 01:43:39;;;;;;;1.17;1.08;;;;;;;-0.05;97.05;92403.84;5091509;28;20555;-74
2022/12/06 01:46:32;;;;;;;1.23;1.00;;;;;;;-0.14;97.85;92412.91;5090723;28;20036;-74
2022/12/06 01:49:01;;;;;;;1.80;1.13;;;;;;;-0.21;97.20;92400.16;5069898;28;20097;-74
2022/12/06 01:51:28;;;;;;;1.35;1.10;;;;;;;-0.27;97.67;92409.56;5071079;28;20058;-75
2022/12/06 01:53:54;;;;;;;0.95;0.88;;;;;;;-0.33;98.50;92410.44;5070602;28;20056;-74
2022/12/06 01:56:20;;;;;;;1.00;0.90;;;;;;;-0.38;99.07;92412.91;5071043;28;20128;-74
2022/12/06 01:58:49;;;;;;;1.35;0.98;;;;;;;-0.41;99.24;92405.59;5069759;28;20072;-74
2022/12/06 02:01:15;;;;;;;1.40;1.10;;;;;;;-0.40;98.76;92414.91;5069668;28;20528;-75
2022/12/06 02:03:41;;;;;;;1.05;0.95;;;;;;;-0.27;94.43;92412.13;5071011;28;20036;-74
2022/12/06 02:06:08;;;;;;;1.30;1.10;;;;;;;-0.28;96.35;92415.69;5070923;28;20555;-74
2022/12/06 02:08:35;;;;;;;1.20;1.10;;;;;;;-0.28;97.74;92415.69;5070964;28;20520;-74
2022/12/06 02:11:03;;;;;;;1.30;1.10;;;;;;;-0.34;98.05;92408.84;5070902;28;20051;-74
2022/12/06 02:13:30;;;;;;;0.85;0.85;;;;;;;-0.42;99.21;92411.75;5086214;28;20032;-74
2022/12/06 02:16:25;;;;;;;1.85;0.95;;;;;;;-0.48;99.32;92410.06;5069679;28;20029;-74
2022/12/06 02:19:38;;;;;;;1.73;1.20;;;;;;;-0.54;100.00;92416.06;5062325;28;20048;-73
2022/12/06 02:22:12;;;;;;;2.00;1.33;;;;;;;-0.63;100.00;92411.28;5042380;28;20083;-74
2022/12/06 02:25:15;;;;;;;4.20;1.27;;;;;;;-0.66;100.00;92414.25;5073657;28;20033;-75
2022/12/06 02:27:52;;;;;;;;;;;;;;;-0.68;100.00;92405.97;5075284;28;20075;-74
2022/12/06 02:30:39;;;;;;;1.25;1.10;;;;;;;-0.71;100.00;92409.00;5073055;28;19917;-74
2022/12/06 02:33:16;;;;;;;1.30;1.00;;;;;;;-0.75;100.00;92402.72;5075195;28;20118;-74
2022/12/06 02:36:06;;;;;;;1.58;1.17;;;;;;;-0.68;100.00;92400.84;5074734;28;20579;-74
2022/12/06 02:38:38;;;;;;;2.00;1.45;;;;;;;-0.59;100.00;92409.03;5073205;28;20086;-74
2022/12/06 02:41:13;;;;;;;2.20;1.50;;;;;;;-0.46;100.00;92408.06;5074692;28;20032;-74
2022/12/06 02:43:44;;;;;;;1.60;1.15;;;;;;;-0.53;100.00;92404.81;5073343;28;20044;-74
2022/12/06 02:46:12;;;;;;;1.27;1.17;;;;;;;-0.58;100.00;92404.69;5073199;28;20040;-74
2022/12/06 02:48:40;;;;;;;1.45;1.17;;;;;;;-0.64;100.00;92391.69;5072902;28;20521;-74
2022/12/06 02:51:10;;;;;;;1.75;1.20;;;;;;;-0.70;100.00;92397.72;5073092;28;20041;-74
2022/12/06 02:53:40;;;;;;;3.45;1.38;;;;;;;-0.75;100.00;92391.66;5074218;28;20498;-75
2022/12/06 02:56:06;;;;;;;1.27;1.15;;;;;;;-0.70;100.00;92397.72;5074387;28;20074;-74
2022/12/06 02:58:36;;;;;;;1.95;1.30;;;;;;;-0.71;100.00;92393.56;5056113;28;20490;-74
2022/12/06 03:01:05;;;;;;;1.40;1.00;;;;;;;-0.73;100.00;92398.16;5072894;28;20096;-73
2022/12/06 03:04:08;;;;;;;1.83;1.20;;;;;;;-0.80;100.00;92400.03;5074170;28;20494;-75
2022/12/06 03:06:46;;;;;;;1.63;1.27;;;;;;;-0.88;100.00;92395.19;5073569;28;20433;-74
2022/12/06 03:09:34;;;;;;;2.22;1.35;;;;;;;-0.91;100.00;92398.19;5093827;28;20431;-74
2022/12/06 03:12:12;;;;;;;1.35;1.23;;;;;;;-0.97;100.00;92394.69;5093035;28;20028;-74
2022/12/06 03:15:01;;;;;;;1.20;1.10;;;;;;;-1.00;100.00;92400.28;5094104;28;20089;-74
2022/12/06 03:17:39;;;;;;;1.45;1.13;;;;;;;-1.03;100.00;92394.81;5087264;28;20051;-74
2022/12/06 03:20:29;;;;;;;0.93;0.90;;;;;;;-1.08;100.00;92398.00;5075932;28;20070;-74
2022/12/06 03:23:03;;;;;;;1.20;1.10;;;;;;;-1.10;100.00;92398.25;5094587;28;20473;-74
2022/12/06 03:25:33;;;;;;;4.00;1.33;;;;;;;-1.10;100.00;92395.66;5093482;28;20032;-74
2022/12/06 03:28:01;;;;;;;1.40;1.00;;;;;;;-1.10;100.00;92405.16;5093872;28;20490;-74
2022/12/06 03:30:30;;;;;;;1.42;1.05;;;;;;;-1.11;100.00;92393.31;5092587;28;20024;-74
2022/12/06 03:32:56;;;;;;;2.13;1.30;;;;;;;-1.12;100.00;92396.91;5092356;28;20036;-74
2022/12/06 03:35:26;;;;;;;1.85;1.30;;;;;;;-1.15;100.00;92397.31;5093950;28;20115;-74
2022/12/06 03:38:02;;;;;;;1.52;1.15;;;;;;;-1.16;100.00;92395.75;5094050;28;20424;-74
2022/12/06 03:40:34;;;;;;;2.28;1.40;;;;;;;-1.15;100.00;92392.97;5092482;28;20088;-74
2022/12/06 03:43:01;;;;;;;1.20;1.10;;;;;;;-1.17;100.00;92389.84;5092819;28;20032;-74
2022/12/06 03:45:42;;;;;;;1.20;1.10;;;;;;;-1.17;100.00;92389.03;5093793;28;20055;-73
2022/12/06 03:48:20;;;;;;;2.03;1.20;;;;;;;-1.12;100.00;92387.41;5093602;28;20085;-75
2022/12/06 03:50:55;;;;;;;1.17;1.00;;;;;;;-1.11;100.00;92386.38;5093365;28;20520;-75
2022/12/06 03:53:20;;;;;;;1.60;1.10;;;;;;;-1.13;100.00;92385.81;5092163;28;20048;-75
2022/12/06 03:55:46;;;;;;;1.00;0.90;;;;;;;-1.15;100.00;92387.84;5075323;28;20046;-75
2022/12/06 03:58:11;;;;;;;1.30;1.20;;;;;;;-1.15;100.00;92389.59;5075214;28;20032;-74
2022/12/06 04:00:37;;;;;;;2.60;1.30;;;;;;;-1.13;100.00;92388.38;5093073;28;20414;-75
2022/12/06 04:03:03;;;;;;;1.58;1.05;;;;;;;-1.14;100.00;92391.19;5075381;28;20036;-75
2022/12/06 04:05:29;;;;;;;1.00;0.90;;;;;;;-1.16;100.00;92386.25;5093066;28;20554;-75
2022/12/06 04:07:54;;;;;;;1.08;1.00;;;;;;;-1.14;100.00;92391.19;5091767;28;20039;-74
2022/12/06 04:10:20;;;;;;;1.25;1.15;;;;;;;-1.14;100.00;92381.69;5091834;28;20051;-74
2022/12/06 04:13:01;;;;;;;1.00;0.90;;;;;;;-1.13;100.00;92382.47;5091899;28;20036;-74
2022/12/06 04:15:36;;;;;;;1.77;1.38;;;;;;;-1.11;100.00;92378.69;5091970;28;20035;-74
2022/12/06 04:18:12;;;;;;;1.65;1.23;;;;;;;-1.12;99.44;92371.97;5091732;28;20471;-75
2022/12/06 04:23:35;;;;;;;1.60;1.10;;;;;;;-1.12;99.43;92378.91;5092920;28;20105;-74
2022/12/06 04:26:03;;;;;;;1.77;1.20;;;;;;;-1.15;97.54;92375.00;5092727;28;20440;-74
2022/12/06 04:39:26;;;;;;;3.75;1.45;;;;;;;-1.26;97.94;92368.81;5091191;28;20417;-75
2022/12/06 04:44:37;;;;;;;1.05;0.95;;;;;;;-1.30;98.52;92361.75;5090993;28;20489;-75
2022/12/06 04:47:03;;;;;;;1.92;1.30;;;;;;;-1.29;98.64;92368.44;5091052;28;20108;-74
2022/12/06 04:49:28;;;;;;;2.03;1.00;;;;;;;-1.31;98.38;92368.66;5091105;28;20020;-75
2022/12/06 04:51:55;;;;;;;0.93;0.90;;;;;;;-1.32;98.89;92366.31;5089066;28;20055;-74
2022/12/06 04:54:22;;;;;;;1.05;1.00;;;;;;;-1.32;97.68;92367.09;5090646;28;20040;-74
2022/12/06 04:56:48;;;;;;;1.77;1.20;;;;;;;-1.31;97.65;92363.50;5091136;28;20043;-74
2022/12/06 04:59:13;;;;;;;1.15;1.00;;;;;;;-1.29;97.08;92360.72;5092142;28;20054;-75
2022/12/06 05:01:39;;;;;;;1.05;0.95;;;;;;;-1.30;97.46;92369.44;5090708;28;20040;-75
2022/12/06 05:04:04;;;;;;;0.90;0.90;;;;;;;-1.31;97.03;92368.66;5091920;28;20415;-74
2022/12/06 05:06:30;;;;;;;1.33;1.23;;;;;;;-1.30;97.11;92364.31;5092033;28;20051;-74
2022/12/06 05:08:56;;;;;;;1.45;1.02;;;;;;;-1.30;97.34;92364.31;5073959;28;20036;-75
2022/12/06 05:11:21;;;;;;;1.10;1.00;;;;;;;-1.32;95.93;92361.94;5092039;28;20051;-74
2022/12/06 05:13:47;;;;;;;0.98;0.90;;;;;;;-1.34;95.70;92355.47;5090647;28;20509;-74
2022/12/06 05:16:12;;;;;;;1.42;1.00;;;;;;;-1.36;96.19;92362.59;5091876;28;20166;-77
2022/12/06 05:18:38;;;;;;;1.00;0.90;;;;;;;-1.40;95.05;92362.25;5092786;28;20085;-75
2022/12/06 05:21:13;;;;;;;1.15;1.00;;;;;;;-1.40;95.06;92358.91;5090638;28;20036;-73
2022/12/06 05:23:38;;;;;;;1.45;1.08;;;;;;;-1.40;93.33;92354.53;5091755;28;20477;-74
2022/12/06 05:26:07;;;;;;;1.13;1.00;;;;;;;-1.41;93.49;92359.91;5091785;28;20086;-74
2022/12/06 05:28:33;;;;;;;0.90;0.90;;;;;;;-1.42;93.21;92356.53;5090190;28;20059;-74
2022/12/06 05:30:59;;;;;;;1.00;0.90;;;;;;;-1.42;93.47;92360.88;5073413;28;20036;-74
2022/12/06 05:33:25;;;;;;;1.08;0.98;;;;;;;-1.42;94.05;92360.88;5091612;28;20374;-74
2022/12/06 05:35:51;;;;;;;1.00;1.00;;;;;;;-1.41;93.80;92357.34;5083716;28;20030;-74
2022/12/06 05:38:18;;;;;;;1.23;1.10;;;;;;;-1.42;94.25;92356.53;5091060;28;20036;-74
2022/12/06 05:40:43;;;;;;;7.15;1.10;;;;;;;-1.43;95.23;92354.97;5090168;28;20028;-74
2022/12/06 05:43:09;;;;;;;1.50;1.20;;;;;;;-1.46;94.84;92360.56;5091852;28;20550;-74
2022/12/06 05:45:36;;;;;;;1.23;1.13;;;;;;;-1.47;94.68;92359.75;5107232;28;20036;-73
2022/12/06 05:48:02;;;;;;;1.27;1.10;;;;;;;-1.48;93.67;92358.19;5085550;28;20032;-74
2022/12/06 05:50:27;;;;;;;1.20;1.10;;;;;;;-1.47;93.76;92362.31;5070261;28;20094;-74
2022/12/06 05:52:54;;;;;;;1.00;0.90;;;;;;;-1.49;94.03;92366.91;5071593;28;20082;-73
2022/12/06 05:55:20;;;;;;;1.10;1.00;;;;;;;-1.49;95.64;92364.34;5055348;28;20031;-77
2022/12/06 05:57:45;;;;;;;1.10;1.00;;;;;;;-1.50;94.02;92367.88;5089883;28;20035;-75
2022/12/06 06:00:29;;;;;;;1.17;1.00;;;;;;;-1.48;93.76;92368.47;5092035;28;20036;-75
2022/12/06 06:02:55;;;;;;;1.45;1.17;;;;;;;-1.48;92.78;92367.69;5089995;28;20542;-74
2022/12/06 06:05:20;;;;;;;2.33;1.40;;;;;;;-1.49;93.20;92372.03;5091541;28;20024;-73
2022/12/06 06:07:46;;;;;;;1.50;1.10;;;;;;;-1.50;93.16;92370.47;5091498;28;20416;-73
2022/12/06 06:10:12;;;;;;;1.10;0.90;;;;;;;-1.51;93.05;92368.91;5090972;28;20024;-74
2022/12/06 06:12:37;;;;;;;1.48;1.08;;;;;;;-1.54;93.89;92364.19;5091273;28;20036;-75
2022/12/06 06:15:05;;;;;;;2.97;1.70;;;;;;;-1.51;92.90;92368.09;5091008;28;20511;-74
2022/12/06 06:17:33;;;;;;;2.17;1.40;;;;;;;-1.49;92.63;92369.47;5089765;28;20036;-73
2022/12/06 06:19:58;;;;;;;1.60;1.23;;;;;;;-1.48;92.58;92373.59;5089755;28;20054;-73
2022/12/06 06:22:24;;;;;;;2.03;1.40;;;;;;;-1.47;92.49;92367.44;5089897;28;20071;-74
2022/12/06 06:24:50;;;;;;;1.83;1.30;;;;;;;-1.43;92.05;92372.19;5090953;28;20511;-75
2022/12/06 06:27:16;;;;;;;1.73;1.30;;;;;;;-1.41;91.88;92372.75;5090713;28;20533;-75
2022/12/06 06:29:41;;;;;;;2.67;1.50;;;;;;;-1.40;90.51;92371.72;5090380;28;20087;-74
2022/12/06 06:32:07;;;;;;;1.95;1.25;;;;;;;-1.41;90.50;92367.59;5087392;28;20107;-75
2022/12/06 06:34:32;;;;;;;2.38;1.52;;;;;;;-1.43;89.80;92367.81;5081183;28;20551;-75
2022/12/06 06:36:58;;;;;;;3.10;2.00;;;;;;;-1.41;89.63;92372.75;5088264;28;20546;-75
2022/12/06 06:39:23;;;;;;;3.30;1.88;;;;;;;-1.40;89.48;92372.50;5085017;28;20119;-74
2022/12/06 06:41:49;;;;;;;2.80;1.50;;;;;;;-1.38;90.04;92373.09;5088566;28;20170;-74
2022/12/06 06:44:14;;;;;;;1.92;1.40;;;;;;;-1.37;89.30;92368.75;5090424;28;20114;-74
2022/12/06 06:46:40;;;;;;;1.85;1.25;;;;;;;-1.36;89.34;92378.00;5089138;28;20106;-74
2022/12/06 06:49:06;;;;;;;1.65;1.30;;;;;;;-1.37;89.67;92379.03;5089164;28;20044;-75
2022/12/06 06:51:33;;;;;;;1.50;1.20;;;;;;;-1.36;89.69;92373.66;5089893;28;20032;-74
2022/12/06 06:53:58;;;;;;;1.90;1.20;;;;;;;-1.29;89.78;92381.28;5089147;28;20482;-75
2022/12/06 06:56:24;;;;;;;1.20;1.10;;;;;;;-1.28;90.72;92382.88;5071932;28;20040;-76
2022/12/06 06:58:50;;;;;;;1.85;1.33;;;;;;;-1.26;91.30;92388.56;5088902;28;20051;-75
2022/12/06 07:01:22;;;;;;;4.35;2.65;;;;;;;-1.27;91.70;92385.19;5085974;28;20417;-76
2022/12/06 07:03:47;;;;;;;3.90;2.53;;;;;;;-1.24;91.46;92381.41;5089096;28;20069;-76
2022/12/06 07:06:13;;;;;;;3.80;2.10;;;;;;;-1.21;91.85;92378.44;5093305;28;20039;-75
2022/12/06 07:08:40;;;;;;;3.72;2.20;;;;;;;-1.19;91.76;92391.84;5092292;28;20035;-75
2022/12/06 07:11:07;;;;;;;3.10;1.88;;;;;;;-1.18;91.80;92387.47;5093965;28;20028;-76
2022/12/06 07:13:35;;;;;;;2.05;1.40;;;;;;;-1.16;92.23;92391.41;5092625;28;20089;-75
2022/12/06 07:16:06;;;;;;;1.60;1.30;;;;;;;-0.25;92.38;92394.69;5093825;28;20048;-75
2022/12/06 07:18:32;;;;;;;2.15;1.30;;;;;;;1.22;88.69;92386.84;5092403;28;20056;-75
2022/12/06 07:21:02;;;;;;;2.50;1.58;;;;;;;2.58;85.69;92385.81;5093847;28;20570;-75
2022/12/06 07:23:29;;;;;;;2.58;1.60;;;;;;;3.89;78.62;92393.63;5092279;28;20032;-75
2022/12/06 07:26:19;;;;;;;3.13;1.80;;;;;;;5.06;72.80;92379.78;5092623;28;20078;-76
2022/12/06 07:28:46;;;;;;;2.45;1.55;;;;;;;6.20;66.00;92377.88;5093047;28;20116;-75
2022/12/06 07:31:21;;;;;;;2.00;1.30;;;;;;;7.10;55.92;92384.19;5092492;28;20481;-76
2022/12/06 07:33:50;;;;;;;1.90;1.30;;;;;;;8.26;50.53;92377.72;5093370;28;20043;-75
2022/12/06 07:36:16;;;;;;;2.53;1.40;;;;;;;8.77;52.97;92379.91;5092129;28;20032;-75
2022/12/06 07:38:46;;;;;;;1.67;1.20;;;;;;;9.60;53.96;92377.88;5093227;28;20077;-76
2022/12/06 07:46:45;;;;;;;11.73;1.35;;;;;;;11.59;46.31;92370.31;5091563;28;20036;-77
2022/12/06 07:49:10;;;;;;;1.40;1.10;;;;;;;11.06;41.84;92378.72;5093365;28;20047;-76
2022/12/06 07:51:36;;;;;;;1.45;1.17;;;;;;;11.75;42.50;92379.41;5092938;28;20382;-76
2022/12/06 07:54:02;;;;;;;2.35;1.20;;;;;;;12.48;40.49;92379.38;5093266;28;20032;-76
2022/12/06 07:56:28;;;;;;;2.38;1.30;;;;;;;12.97;39.27;92376.81;5092927;28;20485;-76
2022/12/06 07:58:54;;;;;;;4.07;1.10;;;;;;;13.18;39.32;92375.22;5092980;28;20024;-77
2022/12/06 08:01:22;;;;;;;2.30;1.50;;;;;;;13.30;35.27;92374.66;5092032;28;20039;-77
2022/12/06 08:03:47;;;;;;;1.75;1.10;;;;;;;13.53;36.97;92375.31;5092315;28;20442;-77
2022/12/06 08:06:13;;;;;;;1.15;0.93;;;;;;;13.57;36.79;92380.75;5092920;28;20124;-77
2022/12/06 08:08:38;;;;;;;2.90;0.90;;;;;;;14.54;36.53;92372.56;5091736;28;20066;-77
2022/12/06 08:11:06;;;;;;;1.75;1.10;;;;;;;14.57;36.13;92371.97;5092896;28;20145;-77
2022/12/06 08:13:33;;;;;;;1.70;0.98;;;;;;;14.67;36.54;92374.28;5092394;28;20036;-77
2022/12/06 08:16:03;;;;;;;2.92;1.30;;;;;;;15.19;35.68;92373.34;5090797;28;20043;-77
2022/12/06 08:18:30;;;;;;;1.60;1.20;;;;;;;15.54;32.68;92363.38;5092000;28;20040;-77
2022/12/06 08:20:57;;;;;;;1.05;0.82;;;;;;;15.43;33.54;92361.44;5092271;28;20048;-77
2022/12/06 08:23:23;;;;;;;1.10;1.00;;;;;;;15.72;33.77;92355.41;5092516;28;20036;-77
2022/12/06 08:25:56;;;;;;;0.80;0.80;;;;;;;16.99;30.06;92360.19;5092383;28;20024;-77
2022/12/06 08:28:21;;;;;;;0.88;0.85;;;;;;;16.76;28.09;92362.44;5092292;28;20040;-77
2022/12/06 08:30:47;;;;;;;1.33;1.00;;;;;;;17.21;28.86;92358.25;5091592;28;20493;-77
2022/12/06 08:33:12;;;;;;;1.55;1.08;;;;;;;15.80;33.04;92354.56;5092361;28;20043;-77
2022/12/06 08:35:38;;;;;;;2.05;1.30;;;;;;;15.56;33.35;92349.88;5090787;28;20035;-77
2022/12/06 08:38:03;;;;;;;2.13;1.30;;;;;;;16.09;32.89;92353.72;5092035;28;20032;-77
2022/12/06 08:40:29;;;;;;;2.45;1.30;;;;;;;15.51;35.41;92356.09;5092103;28;20418;-77
2022/12/06 08:42:54;;;;;;;2.25;1.35;;;;;;;14.69;36.59;92360.78;5091912;28;20032;-77
2022/12/06 08:45:20;;;;;;;2.15;1.20;;;;;;;14.82;36.10;92356.44;5090740;28;20040;-76
2022/12/06 08:47:46;;;;;;;3.95;1.50;;;;;;;15.31;35.87;92364.75;5091916;28;20047;-76
2022/12/06 08:50:12;;;;;;;2.65;1.30;;;;;;;14.65;36.20;92365.91;5074042;28;20059;-76
2022/12/06 08:52:38;;;;;;;2.30;1.30;;;;;;;15.68;35.33;92362.38;5091395;28;20062;-77
2022/12/06 08:55:03;;;;;;;1.85;1.30;;;;;;;15.43;35.45;92361.44;5091899;28;20398;-76
2022/12/06 08:57:31;;;;;;;2.00;1.30;;;;;;;15.34;34.22;92370.16;5091158;28;20035;-76
2022/12/06 08:59:57;;;;;;;3.28;1.15;;;;;;;17.67;29.81;92366.84;5091614;28;20055;-76
2022/12/06 09:02:23;;;;;;;1.75;1.33;;;;;;;18.15;29.57;92370.53;5089139;28;20043;-76
2022/12/06 09:04:51;;;;;;;1.30;1.10;;;;;;;17.63;29.57;92368.59;5091465;28;20142;-76
2022/12/06 09:07:18;;;;;;;2.72;1.25;;;;;;;17.25;31.37;92369.72;5089978;28;20047;-76
2022/12/06 09:09:45;;;;;;;1.67;0.98;;;;;;;18.69;27.15;92372.00;5073293;28;20058;-76
2022/12/06 09:12:11;;;;;;;1.63;1.10;;;;;;;18.02;28.13;92371.69;5091657;28;20032;-76
2022/12/06 09:14:37;;;;;;;3.00;1.67;;;;;;;18.62;29.80;92372.59;5089855;28;20036;-76
2022/12/06 09:17:04;;;;;;;2.92;1.58;;;;;;;16.42;33.42;92374.91;5090845;28;20059;-76
2022/12/06 09:19:30;;;;;;;2.80;1.70;;;;;;;15.94;32.75;92370.94;5090087;28;20042;-76
2022/12/06 09:21:55;;;;;;;3.35;1.60;;;;;;;15.96;33.64;92373.22;5091467;28;20032;-76
2022/12/06 09:24:21;;;;;;;5.43;2.08;;;;;;;16.35;31.89;92369.38;5091017;28;20039;-76
2022/12/06 09:26:47;;;;;;;2.90;1.75;;;;;;;15.25;35.24;92373.94;5089582;28;20489;-76
2022/12/06 09:29:14;;;;;;;3.53;1.70;;;;;;;14.75;37.61;92376.13;5089434;28;20063;-76
2022/12/06 09:31:40;;;;;;;2.75;1.60;;;;;;;14.64;36.00;92374.91;5091563;28;20319;-75
2022/12/06 09:34:07;;;;;;;2.70;1.60;;;;;;;14.54;37.65;92380.47;5089111;28;20042;-76
2022/12/06 09:36:38;;;;;;;3.20;1.67;;;;;;;14.12;39.31;92372.31;5090910;28;20054;-76
2022/12/06 09:39:12;;;;;;;4.07;1.98;;;;;;;14.02;38.14;92367.34;5091022;28;20031;-76
2022/12/06 09:41:37;;;;;;;3.00;1.60;;;;;;;13.82;39.66;92366.84;5090651;28;20409;-76
2022/12/06 09:44:34;;;;;;;4.18;1.80;;;;;;;13.73;39.89;92369.50;5090523;28;20032;-75
2022/12/06 09:47:21;;;;;;;3.22;1.80;;;;;;;13.67;41.19;92370.72;5089454;28;20071;-76
2022/12/06 09:50:07;;;;;;;4.70;2.08;;;;;;;12.68;45.13;92370.97;5089457;28;20071;-75
2022/12/06 09:52:51;;;;;;;5.07;2.10;;;;;;;12.55;46.08;92365.81;5090594;28;20082;-75
2022/12/06 09:55:22;;;;;;;4.78;2.45;;;;;;;10.87;50.02;92361.25;5090812;28;20031;-76
2022/12/06 09:58:16;;;;;;;3.07;1.97;;;;;;;10.93;50.19;92365.31;5090580;28;20028;-75
2022/12/06 10:00:59;;;;;;;3.78;2.00;;;;;;;10.75;49.87;92358.34;5090506;28;20035;-75
2022/12/06 10:03:44;;;;;;;2.80;1.63;;;;;;;11.08;48.01;92350.38;5090896;28;20081;-76
2022/12/06 10:06:17;;;;;;;3.75;1.75;;;;;;;11.95;47.14;92351.97;5089352;28;20062;-76
2022/12/06 10:08:54;;;;;;;2.33;1.55;;;;;;;11.14;47.58;92349.97;5090235;28;20082;-75
2022/12/06 10:11:34;;;;;;;3.47;1.70;;;;;;;10.85;46.49;92347.66;5090550;28;20110;-75
2022/12/06 10:14:25;;;;;;;3.70;1.80;;;;;;;11.18;47.86;92347.56;5090434;28;20375;-75
2022/12/06 10:17:26;;;;;;;3.53;1.60;;;;;;;10.70;48.47;92346.13;5089387;28;20374;-75
2022/12/06 10:20:15;;;;;;;2.70;1.52;;;;;;;11.25;44.62;92350.56;5090307;28;20409;-76
2022/12/06 10:23:02;;;;;;;6.30;1.77;;;;;;;11.64;45.79;92338.75;5090527;28;20119;-75
2022/12/06 10:26:05;;;;;;;2.58;1.52;;;;;;;11.87;45.49;92342.97;5090362;28;20539;-76
2022/12/06 10:28:43;;;;;;;3.10;1.70;;;;;;;11.28;46.42;92343.97;5088488;28;20040;-75
2022/12/06 10:31:37;;;;;;;3.00;1.63;;;;;;;11.06;45.46;92334.97;5090628;28;20475;-76
2022/12/06 10:34:21;;;;;;;2.70;1.50;;;;;;;11.13;46.67;92331.97;5090103;28;20097;-75
2022/12/06 10:36:52;;;;;;;3.88;1.73;;;;;;;10.97;46.71;92329.63;5090198;28;20040;-76
2022/12/06 10:39:36;;;;;;;3.65;1.70;;;;;;;10.92;47.28;92327.13;5090384;28;20127;-75
2022/12/06 10:42:32;;;;;;;5.50;1.60;;;;;;;11.34;47.19;92324.44;5093154;28;20579;-76
2022/12/06 10:47:02;;;;;;;2.63;1.50;;;;;;;10.41;49.83;92328.03;5093290;28;20039;-76
2022/12/06 10:47:54;;;;;;;3.17;1.90;;;;;;;10.18;51.23;92317.41;5094126;28;20115;-75
2022/12/06 10:50:28;;;;;;;3.20;1.70;;;;;;;9.95;52.19;92315.66;5092980;28;20040;-76
2022/12/06 10:53:11;;;;;;;3.70;1.80;;;;;;;9.66;54.70;92315.84;5094113;28;20044;-75
2022/12/06 10:55:47;;;;;;;;;;;;;;;9.62;55.86;92307.81;5094485;28;20154;-75
2022/12/06 10:58:35;;;;;;;3.95;1.80;;;;;;;10.00;54.13;92303.31;5094061;28;19911;-76
2022/12/06 11:01:15;;;;;;;2.83;1.70;;;;;;;9.41;57.23;92301.31;5092653;28;20028;-76
2022/12/06 11:03:45;;;;;;;3.70;1.58;;;;;;;9.19;57.61;92305.28;5089953;28;20028;-75
2022/12/06 11:06:26;;;;;;;3.33;1.77;;;;;;;9.02;58.81;92294.53;5093991;28;20056;-75
2022/12/06 11:08:56;;;;;;;3.03;1.75;;;;;;;9.43;56.98;92307.81;5093754;28;20028;-75
2022/12/06 11:11:33;;;;;;;2.60;1.55;;;;;;;9.85;56.63;92294.94;5093842;28;20042;-75
2022/12/06 11:14:04;;;;;;;3.38;1.52;;;;;;;10.56;54.10;92285.91;5093690;28;20032;-76
2022/12/06 11:16:41;;;;;;;3.35;1.52;;;;;;;9.58;49.58;92285.91;5092655;28;20077;-76
2022/12/06 11:19:35;;;;;;;2.85;1.73;;;;;;;10.43;53.73;92278.81;5094274;28;20032;-77
2022/12/06 11:22:15;;;;;;;2.85;1.50;;;;;;;11.15;51.19;92280.81;5087570;28;20051;-76
2022/12/06 11:24:55;;;;;;;2.80;1.70;;;;;;;10.72;47.77;92280.38;5094303;28;20036;-76
2022/12/06 11:28:07;;;;;;;2.38;1.50;;;;;;;9.78;53.32;92280.38;5093543;28;20119;-76
2022/12/06 11:30:33;;;;;;;3.10;1.70;;;;;;;9.70;54.45;92270.56;5092549;28;20520;-75
2022/12/06 11:33:00;;;;;;;4.22;1.60;;;;;;;10.12;52.38;92263.63;5093308;28;20040;-75
2022/12/06 11:35:27;;;;;;;2.63;1.60;;;;;;;10.05;53.52;92268.44;5094676;28;20040;-76
2022/12/06 11:38:03;;;;;;;4.28;1.70;;;;;;;10.59;50.74;92271.44;5093788;28;20537;-75
2022/12/06 11:40:33;;;;;;;4.07;1.80;;;;;;;10.71;50.29;92268.34;5092082;28;20489;-75
2022/12/06 11:43:01;;;;;;;3.10;1.70;;;;;;;11.48;49.51;92264.13;5091957;28;20036;-76
2022/12/06 11:45:36;;;;;;;2.95;1.50;;;;;;;11.43;48.12;92272.88;5093102;28;20126;-76
2022/12/06 11:48:15;;;;;;;3.25;1.70;;;;;;;10.54;50.73;92264.47;5092884;28;20442;-75
2022/12/06 11:50:42;;;;;;;3.00;1.77;;;;;;;9.68;52.93;92262.25;5093011;28;20064;-75
2022/12/06 11:53:34;;;;;;;3.35;1.60;;;;;;;9.69;54.64;92265.66;5090732;28;20048;-75
2022/12/06 11:56:10;;;;;;;2.67;1.60;;;;;;;9.76;54.57;92260.81;5091805;28;20116;-76
2022/12/06 11:58:48;;;;;;;2.95;1.70;;;;;;;9.59;54.66;92259.50;5091415;28;20036;-76
2022/12/06 12:01:14;;;;;;;2.67;1.60;;;;;;;9.73;52.96;92262.16;5090451;28;20489;-75
2022/12/06 12:03:46;;;;;;;2.92;1.55;;;;;;;9.32;53.56;92262.00;5090590;28;20047;-75
2022/12/06 12:06:26;;;;;;;2.80;1.60;;;;;;;9.62;52.82;92257.41;5091219;28;20044;-75
2022/12/06 12:08:56;;;;;;;3.30;1.67;;;;;;;9.28;55.62;92258.41;5090266;28;20115;-74
2022/12/06 12:11:26;;;;;;;3.58;1.60;;;;;;;9.21;54.79;92258.78;5090743;28;20489;-75
2022/12/06 12:13:57;;;;;;;3.47;1.80;;;;;;;9.33;53.68;92253.88;5091244;28;20485;-74
2022/12/06 12:16:35;;;;;;;2.72;1.50;;;;;;;9.35;53.41;92251.00;5091731;28;20028;-75